createdAt,value
2023-10-13T00:00:49.726Z,100.00
2023-10-13T00:03:16.866Z,100.00
2023-10-13T00:05:44.205Z,100.00
2023-10-13T00:08:11.230Z,100.00
2023-10-13T00:10:38.113Z,100.00
2023-10-13T00:13:22.929Z,100.00
2023-10-13T00:15:59.180Z,100.00
2023-10-13T00:18:42.889Z,100.00
2023-10-13T00:21:16.926Z,100.00
2023-10-13T00:23:56.016Z,100.00
2023-10-13T00:26:31.183Z,100.00
2023-10-13T00:29:08.912Z,100.00
2023-10-13T00:31:39.702Z,100.00
2023-10-13T00:34:41.522Z,100.00
2023-10-13T00:37:20.357Z,100.00
2023-10-13T00:39:47.166Z,100.00
2023-10-13T00:42:31.967Z,100.00
2023-10-13T00:44:59.252Z,100.00
2023-10-13T00:47:37.799Z,100.00
2023-10-13T00:50:12.107Z,100.00
2023-10-13T00:52:42.903Z,100.00
2023-10-13T00:55:10.925Z,100.00
2023-10-13T00:57:38.523Z,100.00
2023-10-13T01:00:13.724Z,100.00
2023-10-13T01:02:40.758Z,100.00
2023-10-13T01:05:12.855Z,100.00
2023-10-13T01:07:39.953Z,100.00
2023-10-13T01:10:14.710Z,100.00
2023-10-13T01:12:43.774Z,99.94
2023-10-13T01:15:12.616Z,98.72
2023-10-13T01:17:39.234Z,100.00
2023-10-13T01:20:07.335Z,100.00
2023-10-13T01:22:34.111Z,100.00
2023-10-13T01:25:11.942Z,100.00
2023-10-13T01:27:42.151Z,100.00
2023-10-13T01:30:23.913Z,100.00
2023-10-13T01:32:52.265Z,99.35
2023-10-13T01:35:36.678Z,100.00
2023-10-13T01:38:03.676Z,100.00
2023-10-13T01:40:34.900Z,100.00
2023-10-13T01:43:02.681Z,100.00
2023-10-13T01:45:33.170Z,100.00
2023-10-13T01:47:59.947Z,100.00
2023-10-13T01:50:30.548Z,100.00
2023-10-13T01:53:13.339Z,100.00
2023-10-13T01:55:44.735Z,100.00
2023-10-13T01:58:21.135Z,100.00
2023-10-13T02:00:49.091Z,100.00
2023-10-13T02:03:17.817Z,100.00
2023-10-13T02:05:49.383Z,98.86
2023-10-13T02:08:24.021Z,99.04
2023-10-13T02:10:54.821Z,100.00
2023-10-13T02:13:24.381Z,100.00
2023-10-13T02:15:57.756Z,100.00
2023-10-13T02:18:28.555Z,100.00
2023-10-13T02:20:56.308Z,100.00
2023-10-13T02:23:26.376Z,100.00
2023-10-13T02:26:01.625Z,100.00
2023-10-13T02:28:30.694Z,100.00
2023-10-13T02:30:58.688Z,100.00
2023-10-13T02:33:34.317Z,100.00
2023-10-13T02:36:06.559Z,100.00
2023-10-13T02:38:34.210Z,100.00
2023-10-13T02:41:07.088Z,100.00
2023-10-13T02:43:37.349Z,100.00
2023-10-13T02:46:05.376Z,100.00
2023-10-13T02:48:41.379Z,100.00
2023-10-13T02:51:16.579Z,100.00
2023-10-13T02:53:48.022Z,100.00
2023-10-13T02:56:15.008Z,100.00
2023-10-13T02:58:46.810Z,100.00
2023-10-13T03:01:19.347Z,100.00
2023-10-13T03:03:55.467Z,100.00
2023-10-13T03:06:33.763Z,100.00
2023-10-13T03:09:14.894Z,100.00
2023-10-13T03:11:50.912Z,100.00
2023-10-13T03:14:32.547Z,100.00
2023-10-13T03:17:10.373Z,100.00
2023-10-13T03:19:38.318Z,100.00
2023-10-13T03:22:17.494Z,100.00
2023-10-13T03:24:48.609Z,100.00
2023-10-13T03:27:23.053Z,100.00
2023-10-13T03:29:56.064Z,100.00
2023-10-13T03:32:27.736Z,100.00
2023-10-13T03:34:56.046Z,98.85
2023-10-13T03:37:42.164Z,98.25
2023-10-13T03:40:22.201Z,98.10
2023-10-13T03:43:01.811Z,100.00
2023-10-13T03:45:28.555Z,100.00
2023-10-13T03:47:55.338Z,100.00
2023-10-13T03:50:32.925Z,100.00
2023-10-13T03:52:59.708Z,100.00
2023-10-13T03:55:30.423Z,100.00
2023-10-13T03:58:00.937Z,100.00
2023-10-13T04:00:30.369Z,100.00
2023-10-13T04:03:10.617Z,100.00
2023-10-13T04:05:37.987Z,100.00
2023-10-13T04:08:26.969Z,100.00
2023-10-13T04:10:55.027Z,100.00
2023-10-13T04:13:41.041Z,100.00
2023-10-13T04:16:23.329Z,100.00
2023-10-13T04:18:56.881Z,100.00
2023-10-13T04:21:42.084Z,100.00
2023-10-13T04:24:19.363Z,100.00
2023-10-13T04:27:04.460Z,100.00
2023-10-13T04:29:49.582Z,100.00
2023-10-13T04:32:30.318Z,100.00
2023-10-13T04:35:11.354Z,100.00
2023-10-13T04:37:59.727Z,100.00
2023-10-13T04:40:27.255Z,100.00
2023-10-13T04:43:05.368Z,100.00
2023-10-13T04:45:32.524Z,100.00
2023-10-13T04:48:20.240Z,100.00
2023-10-13T04:51:09.897Z,100.00
2023-10-13T04:53:56.514Z,100.00
2023-10-13T04:56:46.189Z,99.58
2023-10-13T04:59:31.151Z,99.88
2023-10-13T05:02:16.263Z,100.00
2023-10-13T05:05:01.484Z,100.00
2023-10-13T05:07:46.748Z,99.91
2023-10-13T05:10:32.014Z,98.55
2023-10-13T05:13:17.502Z,98.06
2023-10-13T05:16:09.888Z,98.66
2023-10-13T05:18:57.712Z,98.88
2023-10-13T05:21:43.052Z,99.17
2023-10-13T05:24:28.212Z,100.00
2023-10-13T05:27:13.953Z,100.00
2023-10-13T05:30:03.839Z,100.00
2023-10-13T05:32:49.299Z,100.00
2023-10-13T05:35:35.199Z,100.00
2023-10-13T05:38:20.682Z,100.00
2023-10-13T05:41:13.402Z,100.00
2023-10-13T05:43:59.794Z,100.00
2023-10-13T05:46:26.579Z,100.00
2023-10-13T05:48:59.506Z,100.00
2023-10-13T05:51:36.554Z,97.86
2023-10-13T05:54:16.655Z,97.04
2023-10-13T05:57:03.438Z,95.81
2023-10-13T05:59:50.186Z,93.48
2023-10-13T06:02:36.998Z,90.73
2023-10-13T06:05:23.214Z,89.81
2023-10-13T06:08:08.657Z,86.92
2023-10-13T06:10:54.258Z,84.92
2023-10-13T06:13:39.240Z,81.34
2023-10-13T06:16:26.358Z,79.61
2023-10-13T06:19:11.878Z,76.98
2023-10-13T06:21:57.305Z,78.41
2023-10-13T06:24:42.813Z,77.95
2023-10-13T06:27:28.212Z,75.65
2023-10-13T06:29:55.298Z,73.54
2023-10-13T06:32:27.206Z,72.58
2023-10-13T06:35:08.453Z,72.78
2023-10-13T06:37:35.645Z,70.04
2023-10-13T06:40:23.639Z,67.08
2023-10-13T06:42:50.527Z,65.82
2023-10-13T06:45:19.631Z,66.39
2023-10-13T06:47:46.312Z,62.97
2023-10-13T06:50:17.090Z,63.21
2023-10-13T06:52:44.607Z,62.61
2023-10-13T06:55:18.149Z,61.87
2023-10-13T06:57:45.624Z,63.20
2023-10-13T07:00:21.241Z,60.69
2023-10-13T07:02:48.146Z,62.17
2023-10-13T07:05:15.488Z,61.91
2023-10-13T07:07:42.105Z,59.64
2023-10-13T07:10:10.690Z,58.90
2023-10-13T07:12:38.341Z,58.38
2023-10-13T07:15:20.408Z,58.17
2023-10-13T07:17:57.157Z,57.12
2023-10-13T07:20:35.597Z,54.91
2023-10-13T07:23:05.157Z,56.02
2023-10-13T07:25:34.133Z,55.32
2023-10-13T07:28:01.752Z,54.44
2023-10-13T07:30:28.872Z,52.84
2023-10-13T07:33:00.806Z,52.58
2023-10-13T07:35:32.044Z,51.90
2023-10-13T07:38:01.252Z,52.36
2023-10-13T07:40:28.771Z,53.23
2023-10-13T07:43:02.095Z,51.74
2023-10-13T07:45:37.299Z,51.78
2023-10-13T07:48:21.524Z,51.48
2023-10-13T07:51:17.513Z,50.45
2023-10-13T07:53:45.304Z,49.29
2023-10-13T07:56:15.154Z,47.82
2023-10-13T07:58:54.249Z,48.97
2023-10-13T08:01:21.340Z,49.69
2023-10-13T08:03:48.731Z,49.23
2023-10-13T08:06:20.625Z,48.57
2023-10-13T08:08:54.423Z,47.03
2023-10-13T08:11:24.226Z,46.95
2023-10-13T08:14:04.200Z,45.92
2023-10-13T08:16:47.942Z,45.37
2023-10-13T08:19:16.485Z,45.60
2023-10-13T08:21:53.454Z,42.39
2023-10-13T08:24:30.016Z,42.14
2023-10-13T08:27:15.609Z,41.92
2023-10-13T08:29:55.915Z,40.81
2023-10-13T08:32:30.267Z,38.99
2023-10-13T08:34:58.691Z,36.73
2023-10-13T08:37:26.896Z,36.87
2023-10-13T08:40:24.253Z,37.01
2023-10-13T08:43:05.006Z,36.34
2023-10-13T08:45:32.860Z,33.68
2023-10-13T08:48:13.556Z,33.00
2023-10-13T08:50:54.051Z,32.85
2023-10-13T08:53:29.722Z,32.66
2023-10-13T08:56:10.091Z,30.37
2023-10-13T08:58:55.526Z,31.46
2023-10-13T09:02:01.141Z,30.47
2023-10-13T09:04:39.540Z,32.69
2023-10-13T09:07:07.148Z,31.94
2023-10-13T09:09:48.433Z,32.23
2023-10-13T09:12:18.556Z,32.96
2023-10-13T09:14:58.127Z,32.13
2023-10-13T09:17:35.115Z,34.34
2023-10-13T09:20:27.087Z,33.68
2023-10-13T09:23:05.411Z,37.25
2023-10-13T09:25:37.309Z,35.60
2023-10-13T09:28:23.084Z,38.25
2023-10-13T09:30:54.631Z,38.77
2023-10-13T09:33:30.655Z,40.72
2023-10-13T09:36:00.743Z,41.04
2023-10-13T09:38:32.489Z,41.79
2023-10-13T09:41:02.996Z,43.69
2023-10-13T09:43:32.450Z,42.47
2023-10-13T09:46:08.763Z,42.06
2023-10-13T09:48:41.881Z,43.30
2023-10-13T09:51:15.147Z,45.16
2023-10-13T09:54:21.923Z,44.37
2023-10-13T09:56:55.302Z,43.65
2023-10-13T09:59:54.002Z,45.44
2023-10-13T10:02:27.762Z,43.92
2023-10-13T10:05:13.976Z,46.54
2023-10-13T10:07:41.117Z,42.86
2023-10-13T10:10:12.440Z,42.07
2023-10-13T10:12:58.586Z,42.76
2023-10-13T10:15:36.676Z,43.13
2023-10-13T10:18:04.888Z,44.10
2023-10-13T10:20:46.501Z,43.21
2023-10-13T10:23:25.729Z,41.18
2023-10-13T10:25:53.070Z,42.15
2023-10-13T10:28:21.143Z,44.66
2023-10-13T10:30:48.262Z,41.97
2023-10-13T10:33:16.828Z,43.20
2023-10-13T10:35:44.963Z,42.11
2023-10-13T10:38:25.381Z,41.73
2023-10-13T10:40:58.451Z,42.33
2023-10-13T10:43:33.828Z,44.00
2023-10-13T10:46:00.918Z,40.93
2023-10-13T10:48:33.074Z,42.04
2023-10-13T10:51:07.234Z,41.84
2023-10-13T10:53:44.355Z,43.46
2023-10-13T10:56:21.744Z,45.30
2023-10-13T10:58:49.391Z,40.97
2023-10-13T11:01:22.059Z,42.38
2023-10-13T11:04:00.889Z,44.04
2023-10-13T11:06:28.349Z,41.01
2023-10-13T11:09:20.015Z,43.80
2023-10-13T11:11:47.961Z,43.63
2023-10-13T11:14:26.998Z,41.41
2023-10-13T11:16:55.524Z,40.70
2023-10-13T11:19:36.111Z,40.48
2023-10-13T11:22:33.165Z,38.92
2023-10-13T11:25:01.671Z,43.18
2023-10-13T11:27:50.365Z,42.91
2023-10-13T11:30:21.557Z,39.16
2023-10-13T11:33:09.728Z,42.92
2023-10-13T11:35:50.648Z,39.39
2023-10-13T11:38:26.839Z,38.86
2023-10-13T11:41:06.336Z,42.41
2023-10-13T11:43:43.983Z,39.45
2023-10-13T11:46:11.763Z,40.78
2023-10-13T11:48:39.209Z,41.56
2023-10-13T11:51:18.292Z,39.56
2023-10-13T11:53:54.492Z,40.03
2023-10-13T11:56:25.417Z,38.82
2023-10-13T11:58:52.629Z,39.68
2023-10-13T12:01:19.716Z,37.83
2023-10-13T12:04:07.537Z,37.19
2023-10-13T12:06:38.644Z,37.33
2023-10-13T12:09:19.292Z,37.66
2023-10-13T12:11:47.251Z,39.15
2023-10-13T12:14:28.826Z,38.52
2023-10-13T12:16:56.938Z,39.73
2023-10-13T12:19:25.379Z,37.09
2023-10-13T12:22:06.767Z,40.70
2023-10-13T12:24:36.073Z,41.25
2023-10-13T12:27:24.870Z,39.24
2023-10-13T12:29:53.173Z,39.32
2023-10-13T12:32:26.556Z,36.07
2023-10-13T12:35:17.668Z,36.18
2023-10-13T12:37:44.635Z,36.56
2023-10-13T12:40:34.784Z,37.23
2023-10-13T12:43:20.684Z,36.29
2023-10-13T12:46:07.419Z,38.02
2023-10-13T12:48:53.013Z,40.52
2023-10-13T12:51:23.227Z,37.97
2023-10-13T12:53:51.813Z,37.60
2023-10-13T12:56:27.114Z,37.74
2023-10-13T12:58:55.304Z,35.51
2023-10-13T13:01:23.873Z,36.33
2023-10-13T13:03:52.172Z,36.80
2023-10-13T13:06:30.821Z,36.28
2023-10-13T13:08:59.851Z,43.69
2023-10-13T13:11:31.032Z,43.91
2023-10-13T13:13:57.911Z,44.19
2023-10-13T13:16:31.926Z,37.49
2023-10-13T13:18:58.808Z,45.69
2023-10-13T13:21:25.531Z,43.86
2023-10-13T13:23:56.191Z,42.82
2023-10-13T13:26:23.677Z,37.03
2023-10-13T13:28:53.433Z,37.45
2023-10-13T13:31:26.487Z,41.59
2023-10-13T13:33:53.928Z,38.11
2023-10-13T13:36:20.685Z,36.71
2023-10-13T13:38:47.826Z,33.75
2023-10-13T13:41:17.770Z,34.20
2023-10-13T13:43:51.234Z,33.58
2023-10-13T13:46:19.436Z,32.26
2023-10-13T13:48:49.365Z,33.76
2023-10-13T13:51:16.622Z,33.91
2023-10-13T13:53:46.320Z,33.66
2023-10-13T13:56:20.174Z,33.07
2023-10-13T13:58:47.923Z,34.04
2023-10-13T14:01:19.922Z,33.40
2023-10-13T14:03:48.583Z,34.29
2023-10-13T14:06:22.307Z,32.88
2023-10-13T14:08:58.122Z,34.15
2023-10-13T14:11:42.002Z,33.52
2023-10-13T14:14:25.687Z,35.50
2023-10-13T14:16:53.380Z,34.94
2023-10-13T14:19:29.946Z,34.46
2023-10-13T14:21:57.831Z,34.08
2023-10-13T14:24:29.891Z,34.83
2023-10-13T14:27:08.667Z,35.54
2023-10-13T14:29:41.459Z,33.62
2023-10-13T14:32:13.305Z,34.44
2023-10-13T14:34:44.768Z,34.07
2023-10-13T14:37:14.830Z,34.27
2023-10-13T14:39:42.213Z,34.54
2023-10-13T14:42:08.961Z,33.91
2023-10-13T14:44:36.443Z,34.47
2023-10-13T14:47:03.494Z,34.52
2023-10-13T14:49:30.174Z,35.00
2023-10-13T14:51:56.795Z,35.37
2023-10-13T14:54:33.992Z,38.53
2023-10-13T14:57:04.730Z,39.06
2023-10-13T14:59:34.738Z,38.16
2023-10-13T15:02:02.974Z,38.78
2023-10-13T15:04:34.082Z,39.06
2023-10-13T15:07:04.950Z,38.67
2023-10-13T15:09:31.616Z,39.04
2023-10-13T15:11:58.606Z,40.54
2023-10-13T15:14:25.861Z,41.17
2023-10-13T15:16:53.926Z,42.84
2023-10-13T15:19:20.724Z,41.99
2023-10-13T15:21:51.892Z,40.84
2023-10-13T15:24:26.007Z,45.51
2023-10-13T15:27:03.059Z,46.82
2023-10-13T15:29:37.339Z,47.64
2023-10-13T15:32:26.251Z,49.04
2023-10-13T15:34:53.576Z,48.82
2023-10-13T15:37:21.445Z,49.24
2023-10-13T15:39:48.209Z,49.87
2023-10-13T15:42:15.463Z,49.92
2023-10-13T15:44:44.458Z,50.91
2023-10-13T15:49:43.556Z,52.67
2023-10-13T15:52:11.053Z,52.18
2023-10-13T15:54:37.760Z,52.91
2023-10-13T15:57:07.544Z,53.72
2023-10-13T15:59:35.565Z,52.37
2023-10-13T16:02:04.922Z,50.50
2023-10-13T16:04:31.824Z,51.87
2023-10-13T16:06:58.693Z,50.53
2023-10-13T16:09:25.948Z,50.86
2023-10-13T16:11:54.221Z,51.39
2023-10-13T16:14:22.335Z,50.41
2023-10-13T16:16:51.076Z,51.73
2023-10-13T16:19:22.836Z,50.63
2023-10-13T16:21:51.730Z,51.58
2023-10-13T16:24:21.649Z,52.07
2023-10-13T16:26:57.151Z,53.33
2023-10-13T16:29:24.329Z,53.28
2023-10-13T16:31:51.154Z,53.25
2023-10-13T16:34:19.625Z,53.32
2023-10-13T16:36:55.820Z,53.13
2023-10-13T16:39:24.315Z,54.43
2023-10-13T16:41:53.324Z,52.78
2023-10-13T16:44:26.947Z,52.75
2023-10-13T16:47:02.040Z,53.29
2023-10-13T16:49:29.281Z,53.67
2023-10-13T16:51:56.162Z,53.64
2023-10-13T16:54:23.111Z,54.82
2023-10-13T16:56:52.051Z,57.52
2023-10-13T16:59:18.942Z,57.26
2023-10-13T17:01:47.200Z,57.98
2023-10-13T17:04:17.346Z,56.95
2023-10-13T17:06:44.187Z,57.21
2023-10-13T17:09:12.979Z,55.96
2023-10-13T17:11:42.180Z,57.57
2023-10-13T17:14:09.108Z,60.26
2023-10-13T17:16:35.982Z,58.90
2023-10-13T17:19:02.917Z,61.15
2023-10-13T17:21:29.887Z,61.05
2023-10-13T17:23:57.584Z,61.46
2023-10-13T17:26:27.940Z,63.75
2023-10-13T17:29:04.238Z,59.46
2023-10-13T17:31:33.247Z,59.71
2023-10-13T17:34:00.649Z,60.03
2023-10-13T17:36:31.140Z,64.91
2023-10-13T17:38:58.490Z,69.42
2023-10-13T17:41:25.744Z,67.53
2023-10-13T17:43:52.658Z,67.17
2023-10-13T17:46:22.155Z,68.33
2023-10-13T17:48:49.320Z,67.31
2023-10-13T17:51:16.104Z,67.62
2023-10-13T17:53:42.783Z,66.36
2023-10-13T17:56:14.158Z,67.45
2023-10-13T17:58:44.568Z,65.17
2023-10-13T18:01:20.490Z,66.18
2023-10-13T18:03:52.247Z,64.64
2023-10-13T18:06:24.002Z,63.68
2023-10-13T18:08:52.689Z,63.21
2023-10-13T18:11:20.002Z,66.66
2023-10-13T18:13:47.490Z,65.37
2023-10-13T18:16:15.960Z,65.06
2023-10-13T18:18:46.079Z,65.10
2023-10-13T18:21:13.694Z,66.40
2023-10-13T18:23:41.518Z,66.22
2023-10-13T18:26:08.426Z,65.72
2023-10-13T18:28:35.156Z,64.82
2023-10-13T18:31:12.326Z,63.10
2023-10-13T18:33:41.444Z,64.08
2023-10-13T18:36:25.749Z,65.38
2023-10-13T18:38:53.146Z,65.50
2023-10-13T18:41:26.932Z,63.45
2023-10-13T18:43:53.797Z,62.89
2023-10-13T18:46:26.728Z,62.09
2023-10-13T18:48:58.722Z,64.52
2023-10-13T18:51:26.972Z,66.75
2023-10-13T18:53:58.011Z,68.17
2023-10-13T18:56:25.183Z,67.55
2023-10-13T18:58:56.512Z,68.98
2023-10-13T19:01:29.452Z,68.18
2023-10-13T19:04:00.704Z,69.35
2023-10-13T19:06:31.867Z,70.21
2023-10-13T19:08:59.167Z,75.78
2023-10-13T19:11:25.986Z,71.30
2023-10-13T19:13:53.698Z,70.90
2023-10-13T19:16:27.196Z,70.51
2023-10-13T19:18:55.105Z,69.76
2023-10-13T19:21:22.446Z,75.00
2023-10-13T19:23:51.508Z,86.17
2023-10-13T19:26:25.730Z,80.02
2023-10-13T19:28:56.578Z,76.31
2023-10-13T19:31:28.232Z,78.14
2023-10-13T19:34:11.343Z,77.83
2023-10-13T19:36:38.076Z,76.55
2023-10-13T19:39:09.290Z,77.62
2023-10-13T19:41:37.095Z,76.31
2023-10-13T19:44:05.175Z,75.98
2023-10-13T19:46:34.471Z,76.33
2023-10-13T19:49:04.833Z,78.83
2023-10-13T19:51:32.538Z,78.46
2023-10-13T19:54:03.684Z,78.05
2023-10-13T19:56:32.430Z,79.42
2023-10-13T19:59:02.230Z,81.63
2023-10-13T20:01:34.537Z,80.33
2023-10-13T20:06:29.998Z,78.23
2023-10-13T20:09:23.843Z,77.47
2023-10-13T20:11:53.938Z,78.31
2023-10-13T20:14:23.682Z,79.24
2023-10-13T20:16:50.903Z,80.78
2023-10-13T20:19:17.854Z,80.83
2023-10-13T20:21:48.389Z,82.31
2023-10-13T20:24:15.226Z,82.68
2023-10-13T20:26:44.571Z,83.04
2023-10-13T20:29:18.479Z,84.74
2023-10-13T20:31:49.761Z,87.07
2023-10-13T20:34:24.654Z,85.85
2023-10-13T20:36:55.889Z,84.07
2023-10-13T20:39:26.145Z,81.14
2023-10-13T20:41:53.555Z,81.22
2023-10-13T20:44:26.814Z,81.81
2023-10-13T20:46:54.433Z,81.90
2023-10-13T20:49:23.111Z,81.52
2023-10-13T20:51:50.679Z,81.71
2023-10-13T20:54:18.147Z,83.86
2023-10-13T20:56:47.344Z,82.31
2023-10-13T20:59:15.856Z,83.58
2023-10-13T21:01:45.755Z,86.54
2023-10-13T21:04:13.132Z,89.20
2023-10-13T21:06:45.798Z,91.00
2023-10-13T21:09:21.599Z,89.72
2023-10-13T21:11:48.973Z,88.45
2023-10-13T21:14:16.167Z,87.59
2023-10-13T21:16:43.288Z,86.60
2023-10-13T21:19:11.017Z,89.57
2023-10-13T21:21:38.882Z,87.26
2023-10-13T21:24:11.035Z,86.04
2023-10-13T21:26:38.104Z,84.28
2023-10-13T21:29:10.585Z,85.45
2023-10-13T21:31:40.774Z,85.31
2023-10-13T21:34:07.825Z,85.36
2023-10-13T21:36:38.294Z,84.59
2023-10-13T21:39:05.576Z,87.05
2023-10-13T21:41:38.416Z,90.55
2023-10-13T21:44:07.171Z,91.87
2023-10-13T21:46:36.250Z,91.79
2023-10-13T21:49:06.091Z,92.63
2023-10-13T21:51:36.065Z,91.04
2023-10-13T21:54:02.897Z,90.93
2023-10-13T21:56:29.919Z,88.95
2023-10-13T21:58:57.881Z,85.85
2023-10-13T22:01:31.752Z,86.55
2023-10-13T22:04:12.565Z,86.69
2023-10-13T22:06:42.134Z,86.29
2023-10-13T22:09:11.184Z,86.31
2023-10-13T22:11:39.014Z,87.59
2023-10-13T22:14:07.303Z,87.55
2023-10-13T22:16:35.128Z,86.75
2023-10-13T22:19:02.352Z,87.07
2023-10-13T22:21:30.033Z,87.65
2023-10-13T22:24:01.667Z,88.39
2023-10-13T22:26:31.301Z,89.02
2023-10-13T22:28:59.308Z,90.54
2023-10-13T22:31:26.869Z,90.16
2023-10-13T22:33:55.260Z,89.67
2023-10-13T22:36:25.509Z,89.50
2023-10-13T22:38:57.294Z,88.68
2023-10-13T22:41:25.144Z,88.39
2023-10-13T22:43:51.844Z,87.85
2023-10-13T22:46:21.871Z,88.36
2023-10-13T22:48:49.791Z,87.97
2023-10-13T22:51:17.415Z,87.25
2023-10-13T22:53:46.495Z,88.08
2023-10-13T22:56:19.138Z,89.71
2023-10-13T22:58:46.919Z,90.75
2023-10-13T23:01:20.289Z,90.32
2023-10-13T23:03:57.583Z,90.31
2023-10-13T23:06:31.565Z,90.36
2023-10-13T23:09:09.913Z,94.01
2023-10-13T23:11:39.801Z,95.56
2023-10-13T23:14:07.118Z,94.09
2023-10-13T23:16:34.522Z,93.59
2023-10-13T23:19:02.019Z,92.53
2023-10-13T23:21:29.557Z,91.54
2023-10-13T23:23:56.999Z,93.00
2023-10-13T23:26:30.169Z,93.03
2023-10-13T23:28:56.801Z,91.30
2023-10-13T23:31:25.173Z,91.01
2023-10-13T23:33:54.986Z,90.35
2023-10-13T23:36:22.546Z,90.85
2023-10-13T23:39:00.989Z,91.58
2023-10-13T23:41:32.231Z,91.27
2023-10-13T23:44:14.385Z,90.73
2023-10-13T23:46:45.142Z,91.76
2023-10-13T23:49:16.823Z,92.10
2023-10-13T23:51:50.467Z,92.01
2023-10-13T23:54:20.595Z,92.55
2023-10-13T23:56:50.532Z,92.00
2023-10-13T23:59:28.098Z,92.85
